sensor_id;sensor_type;location;lat;lon;timestamp;temperature;humidity
44069;DHT22;29738;51.234;5.484;2022-07-22T00:00:38;17.20;99.90
44069;DHT22;29738;51.234;5.484;2022-07-22T00:03:04;17.10;99.90
44069;DHT22;29738;51.234;5.484;2022-07-22T00:05:30;16.90;99.90
44069;DHT22;29738;51.234;5.484;2022-07-22T00:07:56;16.90;99.90
44069;DHT22;29738;51.234;5.484;2022-07-22T00:10:22;17.10;99.90
44069;DHT22;29738;51.234;5.484;2022-07-22T00:12:47;17.10;99.90
44069;DHT22;29738;51.234;5.484;2022-07-22T00:15:13;17.00;99.90
44069;DHT22;29738;51.234;5.484;2022-07-22T00:17:39;17.10;99.90
44069;DHT22;29738;51.234;5.484;2022-07-22T00:20:07;17.00;99.90
44069;DHT22;29738;51.234;5.484;2022-07-22T00:22:33;17.10;99.90
44069;DHT22;29738;51.234;5.484;2022-07-22T00:24:59;16.90;99.90
44069;DHT22;29738;51.234;5.484;2022-07-22T00:27:25;16.60;99.90
44069;DHT22;29738;51.234;5.484;2022-07-22T00:29:51;16.50;99.90
44069;DHT22;29738;51.234;5.484;2022-07-22T00:32:16;16.30;99.90
44069;DHT22;29738;51.234;5.484;2022-07-22T00:34:42;16.50;99.90
44069;DHT22;29738;51.234;5.484;2022-07-22T00:37:08;16.50;99.90
44069;DHT22;29738;51.234;5.484;2022-07-22T00:39:34;16.60;99.90
44069;DHT22;29738;51.234;5.484;2022-07-22T00:42:00;16.50;99.90
44069;DHT22;29738;51.234;5.484;2022-07-22T00:44:26;16.70;99.90
44069;DHT22;29738;51.234;5.484;2022-07-22T00:46:52;16.80;99.90
44069;DHT22;29738;51.234;5.484;2022-07-22T00:49:17;16.90;99.90
44069;DHT22;29738;51.234;5.484;2022-07-22T00:51:43;16.80;99.90
44069;DHT22;29738;51.234;5.484;2022-07-22T00:54:11;16.60;99.90
44069;DHT22;29738;51.234;5.484;2022-07-22T00:56:37;16.50;99.90
44069;DHT22;29738;51.234;5.484;2022-07-22T00:59:06;16.60;99.90
44069;DHT22;29738;51.234;5.484;2022-07-22T01:01:32;16.60;99.90
44069;DHT22;29738;51.234;5.484;2022-07-22T01:03:58;16.60;99.90
44069;DHT22;29738;51.234;5.484;2022-07-22T01:06:24;16.80;99.90
44069;DHT22;29738;51.234;5.484;2022-07-22T01:08:50;16.80;99.90
44069;DHT22;29738;51.234;5.484;2022-07-22T01:11:18;17.00;99.90
44069;DHT22;29738;51.234;5.484;2022-07-22T01:13:45;17.00;99.90
44069;DHT22;29738;51.234;5.484;2022-07-22T01:16:12;17.00;99.90
44069;DHT22;29738;51.234;5.484;2022-07-22T01:18:39;17.10;99.90
44069;DHT22;29738;51.234;5.484;2022-07-22T01:21:06;16.90;99.90
44069;DHT22;29738;51.234;5.484;2022-07-22T01:23:33;16.70;99.90
44069;DHT22;29738;51.234;5.484;2022-07-22T01:25:59;16.90;99.90
44069;DHT22;29738;51.234;5.484;2022-07-22T01:28:25;16.80;99.90
44069;DHT22;29738;51.234;5.484;2022-07-22T01:30:51;17.10;99.90
44069;DHT22;29738;51.234;5.484;2022-07-22T01:33:18;17.30;99.90
44069;DHT22;29738;51.234;5.484;2022-07-22T01:35:44;17.20;99.90
44069;DHT22;29738;51.234;5.484;2022-07-22T01:38:10;17.30;99.90
44069;DHT22;29738;51.234;5.484;2022-07-22T01:40:36;17.50;99.90
44069;DHT22;29738;51.234;5.484;2022-07-22T01:43:02;17.30;99.90
44069;DHT22;29738;51.234;5.484;2022-07-22T01:45:28;17.30;99.90
44069;DHT22;29738;51.234;5.484;2022-07-22T01:47:54;17.40;99.90
44069;DHT22;29738;51.234;5.484;2022-07-22T01:50:20;17.30;99.90
44069;DHT22;29738;51.234;5.484;2022-07-22T01:52:46;17.30;99.90
44069;DHT22;29738;51.234;5.484;2022-07-22T01:55:12;17.20;99.90
44069;DHT22;29738;51.234;5.484;2022-07-22T01:57:38;17.30;99.90
44069;DHT22;29738;51.234;5.484;2022-07-22T02:00:08;17.30;99.90
44069;DHT22;29738;51.234;5.484;2022-07-22T02:02:35;17.40;99.90
44069;DHT22;29738;51.234;5.484;2022-07-22T02:05:02;17.50;99.90
44069;DHT22;29738;51.234;5.484;2022-07-22T02:07:28;17.60;99.90
44069;DHT22;29738;51.234;5.484;2022-07-22T02:09:54;17.80;99.90
44069;DHT22;29738;51.234;5.484;2022-07-22T02:12:20;17.90;99.90
44069;DHT22;29738;51.234;5.484;2022-07-22T02:14:46;17.70;99.90
44069;DHT22;29738;51.234;5.484;2022-07-22T02:17:12;17.70;99.90
44069;DHT22;29738;51.234;5.484;2022-07-22T02:19:39;17.80;99.90
44069;DHT22;29738;51.234;5.484;2022-07-22T02:22:05;17.60;99.90
44069;DHT22;29738;51.234;5.484;2022-07-22T02:24:31;17.70;99.90
44069;DHT22;29738;51.234;5.484;2022-07-22T02:26:56;17.70;99.90
44069;DHT22;29738;51.234;5.484;2022-07-22T02:29:22;17.60;99.90
44069;DHT22;29738;51.234;5.484;2022-07-22T02:31:48;17.40;99.90
44069;DHT22;29738;51.234;5.484;2022-07-22T02:34:14;17.30;99.90
44069;DHT22;29738;51.234;5.484;2022-07-22T02:36:40;17.50;99.90
44069;DHT22;29738;51.234;5.484;2022-07-22T02:39:06;17.30;99.90
44069;DHT22;29738;51.234;5.484;2022-07-22T02:41:32;17.00;99.90
44069;DHT22;29738;51.234;5.484;2022-07-22T02:43:58;16.60;99.90
44069;DHT22;29738;51.234;5.484;2022-07-22T02:46:25;16.60;99.90
44069;DHT22;29738;51.234;5.484;2022-07-22T02:48:51;16.70;99.90
44069;DHT22;29738;51.234;5.484;2022-07-22T02:51:17;17.20;99.90
44069;DHT22;29738;51.234;5.484;2022-07-22T02:53:43;17.20;99.90
44069;DHT22;29738;51.234;5.484;2022-07-22T02:56:08;17.10;99.90
44069;DHT22;29738;51.234;5.484;2022-07-22T02:58:34;16.80;99.90
44069;DHT22;29738;51.234;5.484;2022-07-22T03:01:00;16.50;99.90
44069;DHT22;29738;51.234;5.484;2022-07-22T03:03:26;16.30;99.90
44069;DHT22;29738;51.234;5.484;2022-07-22T03:05:52;16.20;99.90
44069;DHT22;29738;51.234;5.484;2022-07-22T03:08:17;16.00;99.90
44069;DHT22;29738;51.234;5.484;2022-07-22T03:10:43;16.00;99.90
44069;DHT22;29738;51.234;5.484;2022-07-22T03:13:09;16.00;99.90
44069;DHT22;29738;51.234;5.484;2022-07-22T03:15:35;16.20;99.90
44069;DHT22;29738;51.234;5.484;2022-07-22T03:18:00;16.40;99.90
44069;DHT22;29738;51.234;5.484;2022-07-22T03:20:27;16.60;99.90
44069;DHT22;29738;51.234;5.484;2022-07-22T03:22:52;16.60;99.90
44069;DHT22;29738;51.234;5.484;2022-07-22T03:25:18;16.80;99.90
44069;DHT22;29738;51.234;5.484;2022-07-22T03:27:44;16.90;99.90
44069;DHT22;29738;51.234;5.484;2022-07-22T03:30:10;17.00;99.90
44069;DHT22;29738;51.234;5.484;2022-07-22T03:32:36;17.10;99.90
44069;DHT22;29738;51.234;5.484;2022-07-22T03:35:03;17.00;99.90
44069;DHT22;29738;51.234;5.484;2022-07-22T03:37:29;17.20;99.90
44069;DHT22;29738;51.234;5.484;2022-07-22T03:39:54;17.20;99.90
44069;DHT22;29738;51.234;5.484;2022-07-22T03:42:20;17.10;99.90
44069;DHT22;29738;51.234;5.484;2022-07-22T03:44:46;17.10;99.90
44069;DHT22;29738;51.234;5.484;2022-07-22T03:47:16;16.90;99.90
44069;DHT22;29738;51.234;5.484;2022-07-22T03:49:42;16.80;99.90
44069;DHT22;29738;51.234;5.484;2022-07-22T03:52:08;16.90;99.90
44069;DHT22;29738;51.234;5.484;2022-07-22T03:54:34;17.10;99.90
44069;DHT22;29738;51.234;5.484;2022-07-22T03:56:59;17.10;99.90
44069;DHT22;29738;51.234;5.484;2022-07-22T03:59:25;17.10;99.90
44069;DHT22;29738;51.234;5.484;2022-07-22T04:01:51;17.20;99.90
44069;DHT22;29738;51.234;5.484;2022-07-22T04:04:17;17.10;99.90
44069;DHT22;29738;51.234;5.484;2022-07-22T04:06:43;17.20;99.90
44069;DHT22;29738;51.234;5.484;2022-07-22T04:09:10;17.30;99.90
44069;DHT22;29738;51.234;5.484;2022-07-22T04:11:36;17.60;99.90
44069;DHT22;29738;51.234;5.484;2022-07-22T04:14:02;17.40;99.90
44069;DHT22;29738;51.234;5.484;2022-07-22T04:16:28;17.60;99.90
44069;DHT22;29738;51.234;5.484;2022-07-22T04:18:54;17.60;99.90
44069;DHT22;29738;51.234;5.484;2022-07-22T04:21:19;17.70;99.90
44069;DHT22;29738;51.234;5.484;2022-07-22T04:23:45;17.70;99.90
44069;DHT22;29738;51.234;5.484;2022-07-22T04:26:11;17.50;99.90
44069;DHT22;29738;51.234;5.484;2022-07-22T04:28:37;17.60;99.90
44069;DHT22;29738;51.234;5.484;2022-07-22T04:31:03;17.70;99.90
44069;DHT22;29738;51.234;5.484;2022-07-22T04:33:29;17.70;99.90
44069;DHT22;29738;51.234;5.484;2022-07-22T04:35:55;17.70;99.90
44069;DHT22;29738;51.234;5.484;2022-07-22T04:38:22;17.70;99.90
44069;DHT22;29738;51.234;5.484;2022-07-22T04:40:48;17.60;99.90
44069;DHT22;29738;51.234;5.484;2022-07-22T04:43:14;17.50;99.90
44069;DHT22;29738;51.234;5.484;2022-07-22T04:45:39;17.40;99.90
44069;DHT22;29738;51.234;5.484;2022-07-22T04:48:06;17.30;99.90
44069;DHT22;29738;51.234;5.484;2022-07-22T04:50:31;17.40;99.90
44069;DHT22;29738;51.234;5.484;2022-07-22T04:52:57;17.40;99.90
44069;DHT22;29738;51.234;5.484;2022-07-22T04:55:23;17.50;99.90
44069;DHT22;29738;51.234;5.484;2022-07-22T04:57:49;17.40;99.90
44069;DHT22;29738;51.234;5.484;2022-07-22T05:00:15;17.50;99.90
44069;DHT22;29738;51.234;5.484;2022-07-22T05:02:42;17.60;99.90
44069;DHT22;29738;51.234;5.484;2022-07-22T05:05:08;17.40;99.90
44069;DHT22;29738;51.234;5.484;2022-07-22T05:07:34;17.30;99.90
44069;DHT22;29738;51.234;5.484;2022-07-22T05:09:59;17.50;99.90
44069;DHT22;29738;51.234;5.484;2022-07-22T05:12:25;17.60;99.90
44069;DHT22;29738;51.234;5.484;2022-07-22T05:14:51;17.50;99.90
44069;DHT22;29738;51.234;5.484;2022-07-22T05:17:17;17.30;99.90
44069;DHT22;29738;51.234;5.484;2022-07-22T05:19:42;17.20;99.90
44069;DHT22;29738;51.234;5.484;2022-07-22T05:22:09;17.50;99.90
44069;DHT22;29738;51.234;5.484;2022-07-22T05:24:35;17.60;99.90
44069;DHT22;29738;51.234;5.484;2022-07-22T05:27:01;17.70;99.90
44069;DHT22;29738;51.234;5.484;2022-07-22T05:29:27;17.60;99.90
44069;DHT22;29738;51.234;5.484;2022-07-22T05:31:53;17.50;99.90
44069;DHT22;29738;51.234;5.484;2022-07-22T05:34:19;17.60;99.90
44069;DHT22;29738;51.234;5.484;2022-07-22T05:36:44;17.60;99.90
44069;DHT22;29738;51.234;5.484;2022-07-22T05:39:10;17.50;99.90
44069;DHT22;29738;51.234;5.484;2022-07-22T05:41:36;17.60;99.90
44069;DHT22;29738;51.234;5.484;2022-07-22T05:44:03;17.90;99.90
44069;DHT22;29738;51.234;5.484;2022-07-22T05:46:29;18.20;99.90
44069;DHT22;29738;51.234;5.484;2022-07-22T05:48:55;18.10;99.90
44069;DHT22;29738;51.234;5.484;2022-07-22T05:51:21;18.10;99.90
44069;DHT22;29738;51.234;5.484;2022-07-22T05:53:47;18.10;99.90
44069;DHT22;29738;51.234;5.484;2022-07-22T05:56:13;18.20;99.90
44069;DHT22;29738;51.234;5.484;2022-07-22T05:58:39;18.20;99.90
44069;DHT22;29738;51.234;5.484;2022-07-22T06:01:06;18.40;99.90
44069;DHT22;29738;51.234;5.484;2022-07-22T06:03:32;18.60;99.90
44069;DHT22;29738;51.234;5.484;2022-07-22T06:05:58;18.80;99.90
44069;DHT22;29738;51.234;5.484;2022-07-22T06:08:24;18.70;99.90
44069;DHT22;29738;51.234;5.484;2022-07-22T06:10:49;18.40;99.90
44069;DHT22;29738;51.234;5.484;2022-07-22T06:13:15;18.60;99.90
44069;DHT22;29738;51.234;5.484;2022-07-22T06:15:41;18.20;99.90
44069;DHT22;29738;51.234;5.484;2022-07-22T06:18:07;18.00;99.90
44069;DHT22;29738;51.234;5.484;2022-07-22T06:20:32;18.00;99.90
44069;DHT22;29738;51.234;5.484;2022-07-22T06:22:58;18.10;99.90
44069;DHT22;29738;51.234;5.484;2022-07-22T06:25:24;17.90;99.90
44069;DHT22;29738;51.234;5.484;2022-07-22T06:27:50;17.80;99.90
44069;DHT22;29738;51.234;5.484;2022-07-22T06:30:16;17.60;99.90
44069;DHT22;29738;51.234;5.484;2022-07-22T06:32:41;17.60;99.90
44069;DHT22;29738;51.234;5.484;2022-07-22T06:35:07;17.60;99.90
44069;DHT22;29738;51.234;5.484;2022-07-22T06:37:33;17.70;99.90
44069;DHT22;29738;51.234;5.484;2022-07-22T06:39:59;17.70;99.90
44069;DHT22;29738;51.234;5.484;2022-07-22T06:42:25;17.70;99.90
44069;DHT22;29738;51.234;5.484;2022-07-22T06:44:51;17.90;99.90
44069;DHT22;29738;51.234;5.484;2022-07-22T06:47:17;18.00;99.90
44069;DHT22;29738;51.234;5.484;2022-07-22T06:49:43;18.00;99.90
44069;DHT22;29738;51.234;5.484;2022-07-22T06:52:10;18.30;99.90
44069;DHT22;29738;51.234;5.484;2022-07-22T06:54:35;18.50;99.90
44069;DHT22;29738;51.234;5.484;2022-07-22T06:57:01;18.30;99.90
44069;DHT22;29738;51.234;5.484;2022-07-22T06:59:27;18.60;99.90
44069;DHT22;29738;51.234;5.484;2022-07-22T07:01:53;18.90;99.90
44069;DHT22;29738;51.234;5.484;2022-07-22T07:04:19;18.50;99.90
44069;DHT22;29738;51.234;5.484;2022-07-22T07:06:45;18.30;99.90
44069;DHT22;29738;51.234;5.484;2022-07-22T07:09:11;18.40;99.90
44069;DHT22;29738;51.234;5.484;2022-07-22T07:11:37;18.40;99.90
44069;DHT22;29738;51.234;5.484;2022-07-22T07:14:02;18.30;99.90
44069;DHT22;29738;51.234;5.484;2022-07-22T07:16:29;18.20;99.90
44069;DHT22;29738;51.234;5.484;2022-07-22T07:18:54;18.30;99.90
44069;DHT22;29738;51.234;5.484;2022-07-22T07:21:20;18.40;99.90
44069;DHT22;29738;51.234;5.484;2022-07-22T07:23:46;18.70;99.90
44069;DHT22;29738;51.234;5.484;2022-07-22T07:26:12;19.10;99.90
44069;DHT22;29738;51.234;5.484;2022-07-22T07:28:39;19.20;99.90
44069;DHT22;29738;51.234;5.484;2022-07-22T07:31:05;18.80;99.90
44069;DHT22;29738;51.234;5.484;2022-07-22T07:33:31;18.90;99.90
44069;DHT22;29738;51.234;5.484;2022-07-22T07:35:56;19.10;99.90
44069;DHT22;29738;51.234;5.484;2022-07-22T07:38:23;18.80;99.90
44069;DHT22;29738;51.234;5.484;2022-07-22T07:40:48;18.80;99.90
44069;DHT22;29738;51.234;5.484;2022-07-22T07:43:14;18.60;99.90
44069;DHT22;29738;51.234;5.484;2022-07-22T07:45:40;18.50;99.90
44069;DHT22;29738;51.234;5.484;2022-07-22T07:48:06;18.70;99.90
44069;DHT22;29738;51.234;5.484;2022-07-22T07:50:32;18.80;99.90
44069;DHT22;29738;51.234;5.484;2022-07-22T07:52:58;18.80;99.90
44069;DHT22;29738;51.234;5.484;2022-07-22T07:55:25;18.90;99.90
44069;DHT22;29738;51.234;5.484;2022-07-22T07:57:51;19.40;99.90
44069;DHT22;29738;51.234;5.484;2022-07-22T08:00:21;19.90;99.90
44069;DHT22;29738;51.234;5.484;2022-07-22T08:02:47;20.30;99.90
44069;DHT22;29738;51.234;5.484;2022-07-22T08:05:13;21.20;99.90
44069;DHT22;29738;51.234;5.484;2022-07-22T08:07:39;21.20;99.90
44069;DHT22;29738;51.234;5.484;2022-07-22T08:10:06;20.70;99.90
44069;DHT22;29738;51.234;5.484;2022-07-22T08:12:32;20.70;99.90
44069;DHT22;29738;51.234;5.484;2022-07-22T08:14:58;20.50;99.90
44069;DHT22;29738;51.234;5.484;2022-07-22T08:17:24;20.50;99.90
44069;DHT22;29738;51.234;5.484;2022-07-22T08:19:50;20.90;99.90
44069;DHT22;29738;51.234;5.484;2022-07-22T08:22:16;21.30;99.90
44069;DHT22;29738;51.234;5.484;2022-07-22T08:24:41;21.50;99.90
44069;DHT22;29738;51.234;5.484;2022-07-22T08:27:07;21.60;99.90
44069;DHT22;29738;51.234;5.484;2022-07-22T08:29:33;21.90;99.90
44069;DHT22;29738;51.234;5.484;2022-07-22T08:31:59;22.20;99.90
44069;DHT22;29738;51.234;5.484;2022-07-22T08:34:25;22.10;99.90
44069;DHT22;29738;51.234;5.484;2022-07-22T08:36:50;22.10;99.90
44069;DHT22;29738;51.234;5.484;2022-07-22T08:39:16;21.40;99.90
44069;DHT22;29738;51.234;5.484;2022-07-22T08:41:42;20.80;99.90
44069;DHT22;29738;51.234;5.484;2022-07-22T08:44:09;20.70;99.90
44069;DHT22;29738;51.234;5.484;2022-07-22T08:46:36;20.60;99.90
44069;DHT22;29738;51.234;5.484;2022-07-22T08:49:02;20.00;99.90
44069;DHT22;29738;51.234;5.484;2022-07-22T08:51:28;20.10;99.90
44069;DHT22;29738;51.234;5.484;2022-07-22T08:53:55;19.70;99.90
44069;DHT22;29738;51.234;5.484;2022-07-22T08:56:21;19.60;99.90
44069;DHT22;29738;51.234;5.484;2022-07-22T08:58:47;19.70;99.90
44069;DHT22;29738;51.234;5.484;2022-07-22T09:01:15;19.80;99.90
44069;DHT22;29738;51.234;5.484;2022-07-22T09:03:50;20.10;99.90
44069;DHT22;29738;51.234;5.484;2022-07-22T09:06:17;20.40;99.90
44069;DHT22;29738;51.234;5.484;2022-07-22T09:11:20;20.80;99.90
44069;DHT22;29738;51.234;5.484;2022-07-22T09:13:46;20.50;99.90
44069;DHT22;29738;51.234;5.484;2022-07-22T09:16:12;20.10;99.90
44069;DHT22;29738;51.234;5.484;2022-07-22T09:18:49;20.20;99.90
44069;DHT22;29738;51.234;5.484;2022-07-22T09:21:16;20.90;99.90
44069;DHT22;29738;51.234;5.484;2022-07-22T09:23:42;21.00;99.90
44069;DHT22;29738;51.234;5.484;2022-07-22T09:26:09;20.40;99.90
44069;DHT22;29738;51.234;5.484;2022-07-22T09:28:56;20.40;99.90
44069;DHT22;29738;51.234;5.484;2022-07-22T09:31:26;20.30;99.90
44069;DHT22;29738;51.234;5.484;2022-07-22T09:33:53;20.60;99.90
44069;DHT22;29738;51.234;5.484;2022-07-22T09:36:19;20.70;99.90
44069;DHT22;29738;51.234;5.484;2022-07-22T09:38:45;20.30;99.90
44069;DHT22;29738;51.234;5.484;2022-07-22T09:41:11;20.40;99.90
44069;DHT22;29738;51.234;5.484;2022-07-22T09:43:37;20.80;99.90
44069;DHT22;29738;51.234;5.484;2022-07-22T09:46:03;21.00;99.90
44069;DHT22;29738;51.234;5.484;2022-07-22T09:48:30;21.10;99.90
44069;DHT22;29738;51.234;5.484;2022-07-22T09:50:56;21.70;99.90
44069;DHT22;29738;51.234;5.484;2022-07-22T09:53:24;21.90;99.90
44069;DHT22;29738;51.234;5.484;2022-07-22T09:55:50;22.00;99.90
44069;DHT22;29738;51.234;5.484;2022-07-22T09:58:16;22.20;99.90
44069;DHT22;29738;51.234;5.484;2022-07-22T10:00:43;22.50;99.90
44069;DHT22;29738;51.234;5.484;2022-07-22T10:03:19;22.60;99.90
44069;DHT22;29738;51.234;5.484;2022-07-22T10:05:47;22.40;99.90
44069;DHT22;29738;51.234;5.484;2022-07-22T10:08:13;22.30;99.90
44069;DHT22;29738;51.234;5.484;2022-07-22T10:10:39;22.80;99.90
44069;DHT22;29738;51.234;5.484;2022-07-22T10:13:06;23.10;99.90
44069;DHT22;29738;51.234;5.484;2022-07-22T10:15:34;23.40;99.90
44069;DHT22;29738;51.234;5.484;2022-07-22T10:18:04;22.20;99.90
44069;DHT22;29738;51.234;5.484;2022-07-22T10:20:32;22.00;99.90
44069;DHT22;29738;51.234;5.484;2022-07-22T10:23:00;21.90;99.90
44069;DHT22;29738;51.234;5.484;2022-07-22T10:25:51;21.40;99.90
44069;DHT22;29738;51.234;5.484;2022-07-22T10:28:25;20.80;99.90
44069;DHT22;29738;51.234;5.484;2022-07-22T10:30:52;21.10;99.90
44069;DHT22;29738;51.234;5.484;2022-07-22T10:33:20;21.60;99.90
44069;DHT22;29738;51.234;5.484;2022-07-22T10:35:56;21.90;99.90
44069;DHT22;29738;51.234;5.484;2022-07-22T10:38:23;22.40;99.90
44069;DHT22;29738;51.234;5.484;2022-07-22T10:41:01;22.90;99.90
44069;DHT22;29738;51.234;5.484;2022-07-22T10:46:09;23.60;99.90
44069;DHT22;29738;51.234;5.484;2022-07-22T10:51:17;23.70;99.90
44069;DHT22;29738;51.234;5.484;2022-07-22T10:53:56;23.90;99.90
44069;DHT22;29738;51.234;5.484;2022-07-22T10:56:33;24.20;99.90
44069;DHT22;29738;51.234;5.484;2022-07-22T10:59:14;23.70;99.90
44069;DHT22;29738;51.234;5.484;2022-07-22T11:01:42;22.80;99.90
44069;DHT22;29738;51.234;5.484;2022-07-22T11:04:09;22.80;99.90
44069;DHT22;29738;51.234;5.484;2022-07-22T11:06:36;22.40;99.90
44069;DHT22;29738;51.234;5.484;2022-07-22T11:09:07;21.70;99.90
44069;DHT22;29738;51.234;5.484;2022-07-22T11:14:19;22.00;99.90
44069;DHT22;29738;51.234;5.484;2022-07-22T11:16:47;22.70;99.90
44069;DHT22;29738;51.234;5.484;2022-07-22T11:19:13;23.50;99.90
44069;DHT22;29738;51.234;5.484;2022-07-22T11:21:39;24.10;99.90
44069;DHT22;29738;51.234;5.484;2022-07-22T11:24:07;24.20;99.90
44069;DHT22;29738;51.234;5.484;2022-07-22T11:26:43;24.60;99.90
44069;DHT22;29738;51.234;5.484;2022-07-22T11:29:12;24.00;99.90
44069;DHT22;29738;51.234;5.484;2022-07-22T11:31:40;22.90;99.90
44069;DHT22;29738;51.234;5.484;2022-07-22T11:34:15;22.20;99.90
44069;DHT22;29738;51.234;5.484;2022-07-22T11:36:46;22.10;99.90
44069;DHT22;29738;51.234;5.484;2022-07-22T11:39:16;22.20;99.90
44069;DHT22;29738;51.234;5.484;2022-07-22T11:41:43;22.40;99.90
44069;DHT22;29738;51.234;5.484;2022-07-22T11:44:09;22.50;99.90
44069;DHT22;29738;51.234;5.484;2022-07-22T11:46:39;22.60;99.90
44069;DHT22;29738;51.234;5.484;2022-07-22T11:49:06;23.30;99.90
44069;DHT22;29738;51.234;5.484;2022-07-22T11:51:35;23.80;99.90
44069;DHT22;29738;51.234;5.484;2022-07-22T11:54:01;23.80;99.90
44069;DHT22;29738;51.234;5.484;2022-07-22T11:56:27;23.30;99.90
44069;DHT22;29738;51.234;5.484;2022-07-22T11:58:53;23.20;99.90
44069;DHT22;29738;51.234;5.484;2022-07-22T12:01:22;23.60;99.90
44069;DHT22;29738;51.234;5.484;2022-07-22T12:03:54;23.90;99.90
44069;DHT22;29738;51.234;5.484;2022-07-22T12:06:22;24.50;99.90
44069;DHT22;29738;51.234;5.484;2022-07-22T12:09:03;24.30;99.90
44069;DHT22;29738;51.234;5.484;2022-07-22T12:11:29;23.60;99.90
44069;DHT22;29738;51.234;5.484;2022-07-22T12:13:55;23.70;99.90
44069;DHT22;29738;51.234;5.484;2022-07-22T12:16:24;23.70;99.90
44069;DHT22;29738;51.234;5.484;2022-07-22T12:18:59;23.70;99.90
44069;DHT22;29738;51.234;5.484;2022-07-22T12:21:29;24.20;99.90
44069;DHT22;29738;51.234;5.484;2022-07-22T12:23:58;24.00;99.90
44069;DHT22;29738;51.234;5.484;2022-07-22T12:26:45;24.00;99.90
44069;DHT22;29738;51.234;5.484;2022-07-22T12:29:23;24.60;99.90
44069;DHT22;29738;51.234;5.484;2022-07-22T12:31:59;25.50;99.90
44069;DHT22;29738;51.234;5.484;2022-07-22T12:34:31;25.30;99.90
44069;DHT22;29738;51.234;5.484;2022-07-22T12:36:57;25.10;99.90
44069;DHT22;29738;51.234;5.484;2022-07-22T12:39:23;24.80;99.90
44069;DHT22;29738;51.234;5.484;2022-07-22T12:41:52;25.20;99.90
44069;DHT22;29738;51.234;5.484;2022-07-22T12:44:23;25.50;99.90
44069;DHT22;29738;51.234;5.484;2022-07-22T12:46:54;25.70;99.90
44069;DHT22;29738;51.234;5.484;2022-07-22T12:49:22;25.30;99.90
44069;DHT22;29738;51.234;5.484;2022-07-22T12:52:12;25.30;99.90
44069;DHT22;29738;51.234;5.484;2022-07-22T12:54:40;25.50;99.90
44069;DHT22;29738;51.234;5.484;2022-07-22T12:57:08;25.60;99.90
44069;DHT22;29738;51.234;5.484;2022-07-22T12:59:35;24.70;99.90
44069;DHT22;29738;51.234;5.484;2022-07-22T13:02:01;24.00;99.90
44069;DHT22;29738;51.234;5.484;2022-07-22T13:04:27;23.40;99.90
44069;DHT22;29738;51.234;5.484;2022-07-22T13:06:53;23.50;99.90
44069;DHT22;29738;51.234;5.484;2022-07-22T13:09:19;23.60;99.90
44069;DHT22;29738;51.234;5.484;2022-07-22T13:11:45;24.20;99.90
44069;DHT22;29738;51.234;5.484;2022-07-22T13:14:12;24.60;99.90
44069;DHT22;29738;51.234;5.484;2022-07-22T13:16:38;25.30;99.90
44069;DHT22;29738;51.234;5.484;2022-07-22T13:19:04;25.90;99.90
44069;DHT22;29738;51.234;5.484;2022-07-22T13:21:30;26.30;99.90
44069;DHT22;29738;51.234;5.484;2022-07-22T13:23:56;26.60;99.90
44069;DHT22;29738;51.234;5.484;2022-07-22T13:26:22;26.40;99.90
44069;DHT22;29738;51.234;5.484;2022-07-22T13:28:47;26.00;99.90
44069;DHT22;29738;51.234;5.484;2022-07-22T13:31:13;25.60;99.90
44069;DHT22;29738;51.234;5.484;2022-07-22T13:33:39;25.50;99.90
44069;DHT22;29738;51.234;5.484;2022-07-22T13:36:05;25.70;99.90
44069;DHT22;29738;51.234;5.484;2022-07-22T13:38:31;26.10;99.90
44069;DHT22;29738;51.234;5.484;2022-07-22T13:40:57;26.00;99.90
44069;DHT22;29738;51.234;5.484;2022-07-22T13:43:24;25.70;99.90
44069;DHT22;29738;51.234;5.484;2022-07-22T13:45:52;26.10;99.90
44069;DHT22;29738;51.234;5.484;2022-07-22T13:48:18;25.80;99.90
44069;DHT22;29738;51.234;5.484;2022-07-22T13:50:45;25.20;99.90
44069;DHT22;29738;51.234;5.484;2022-07-22T13:53:10;24.60;99.90
44069;DHT22;29738;51.234;5.484;2022-07-22T13:55:40;24.80;99.90
44069;DHT22;29738;51.234;5.484;2022-07-22T13:58:06;25.30;99.90
44069;DHT22;29738;51.234;5.484;2022-07-22T14:00:33;24.80;99.90
44069;DHT22;29738;51.234;5.484;2022-07-22T14:02:59;25.00;99.90
44069;DHT22;29738;51.234;5.484;2022-07-22T14:05:25;24.60;99.90
44069;DHT22;29738;51.234;5.484;2022-07-22T14:07:51;24.80;99.90
44069;DHT22;29738;51.234;5.484;2022-07-22T14:10:17;24.50;99.90
44069;DHT22;29738;51.234;5.484;2022-07-22T14:12:43;24.40;99.90
44069;DHT22;29738;51.234;5.484;2022-07-22T14:15:10;24.50;99.90
44069;DHT22;29738;51.234;5.484;2022-07-22T14:17:36;24.70;99.90
44069;DHT22;29738;51.234;5.484;2022-07-22T14:20:02;24.90;99.90
44069;DHT22;29738;51.234;5.484;2022-07-22T14:22:29;25.20;99.90
44069;DHT22;29738;51.234;5.484;2022-07-22T14:24:56;25.50;99.90
44069;DHT22;29738;51.234;5.484;2022-07-22T14:27:22;25.10;99.90
44069;DHT22;29738;51.234;5.484;2022-07-22T14:29:48;24.50;99.90
44069;DHT22;29738;51.234;5.484;2022-07-22T14:32:13;24.80;99.90
44069;DHT22;29738;51.234;5.484;2022-07-22T14:34:39;24.80;99.90
44069;DHT22;29738;51.234;5.484;2022-07-22T14:37:05;24.90;99.90
44069;DHT22;29738;51.234;5.484;2022-07-22T14:39:31;25.60;99.90
44069;DHT22;29738;51.234;5.484;2022-07-22T14:41:57;25.20;99.90
44069;DHT22;29738;51.234;5.484;2022-07-22T14:44:24;24.70;99.90
44069;DHT22;29738;51.234;5.484;2022-07-22T14:46:50;25.00;99.90
44069;DHT22;29738;51.234;5.484;2022-07-22T14:49:15;25.40;99.90
44069;DHT22;29738;51.234;5.484;2022-07-22T14:51:42;25.20;99.90
44069;DHT22;29738;51.234;5.484;2022-07-22T14:54:08;25.10;99.90
44069;DHT22;29738;51.234;5.484;2022-07-22T14:56:37;25.20;99.90
44069;DHT22;29738;51.234;5.484;2022-07-22T14:59:04;24.70;99.90
44069;DHT22;29738;51.234;5.484;2022-07-22T15:01:30;24.60;99.90
44069;DHT22;29738;51.234;5.484;2022-07-22T15:03:56;24.70;99.90
44069;DHT22;29738;51.234;5.484;2022-07-22T15:06:22;24.60;99.90
44069;DHT22;29738;51.234;5.484;2022-07-22T15:08:48;24.50;99.90
44069;DHT22;29738;51.234;5.484;2022-07-22T15:11:15;24.40;99.90
44069;DHT22;29738;51.234;5.484;2022-07-22T15:13:41;24.40;99.90
44069;DHT22;29738;51.234;5.484;2022-07-22T15:16:08;24.70;99.90
44069;DHT22;29738;51.234;5.484;2022-07-22T15:18:35;25.50;99.90
44069;DHT22;29738;51.234;5.484;2022-07-22T15:21:01;26.30;99.90
44069;DHT22;29738;51.234;5.484;2022-07-22T15:23:27;26.00;99.90
44069;DHT22;29738;51.234;5.484;2022-07-22T15:25:57;24.70;99.90
44069;DHT22;29738;51.234;5.484;2022-07-22T15:28:23;24.40;99.90
44069;DHT22;29738;51.234;5.484;2022-07-22T15:30:49;24.40;99.90
44069;DHT22;29738;51.234;5.484;2022-07-22T15:33:15;24.80;99.90
44069;DHT22;29738;51.234;5.484;2022-07-22T15:35:41;25.00;99.90
44069;DHT22;29738;51.234;5.484;2022-07-22T15:38:07;25.10;99.90